Time;durP1;ratioP1;P1;durP2;ratioP2;P2;SDS_P1;SDS_P2;PMS_P1;PMS_P2;Temp;Humidity;BMP_temperature;BMP_pressure;BME280_temperature;BME280_humidity;BME280_pressure;Samples;Min_cycle;Max_cycle;Signal;HPM_P1;HPM_P2
2023/03/24 00:02:18;;;;;;;14.18;6.30;;;11.50;99.90;;;;;;4932888;29;20082;-45
2023/03/24 00:04:48;;;;;;;11.40;5.03;;;11.30;99.90;;;;;;4932682;29;20044;-45
2023/03/24 00:07:15;;;;;;;12.70;5.45;;;11.40;99.90;;;;;;4932314;29;20050;-45
2023/03/24 00:09:44;;;;;;;12.05;5.60;;;11.60;99.90;;;;;;4932242;29;20087;-45
2023/03/24 00:12:17;;;;;;;11.35;5.18;;;11.60;99.90;;;;;;4915900;29;20047;-45
2023/03/24 00:14:45;;;;;;;9.90;5.13;;;11.60;99.90;;;;;;4933048;29;20039;-45
2023/03/24 00:17:12;;;;;;;15.13;5.75;;;11.30;99.90;;;;;;4931315;29;20083;-47
2023/03/24 00:19:39;;;;;;;13.88;5.10;;;11.30;99.90;;;;;;4931945;29;20126;-51
2023/03/24 00:22:13;;;;;;;10.27;5.35;;;11.60;99.90;;;;;;4932960;29;20392;-51
2023/03/24 00:24:39;;;;;;;9.00;4.68;;;11.60;99.90;;;;;;4932391;29;20047;-49
2023/03/24 00:27:05;;;;;;;11.00;5.20;;;11.60;99.90;;;;;;4933971;29;20082;-49
2023/03/24 00:29:32;;;;;;;10.40;4.85;;;11.40;99.90;;;;;;4936357;29;20075;-48
2023/03/24 00:31:58;;;;;;;9.40;5.05;;;11.20;99.90;;;;;;4936373;29;20047;-48
2023/03/24 00:34:24;;;;;;;9.52;4.80;;;11.60;99.90;;;;;;4936204;29;20044;-51
2023/03/24 00:36:51;;;;;;;12.18;5.10;;;11.20;99.90;;;;;;4936145;29;20047;-52
2023/03/24 00:39:20;;;;;;;9.55;5.10;;;11.60;99.90;;;;;;4933772;29;20398;-48
2023/03/24 00:41:47;;;;;;;9.88;5.00;;;11.50;99.90;;;;;;4935707;29;20054;-48
2023/03/24 00:44:16;;;;;;;13.32;4.70;;;11.60;99.90;;;;;;4936027;29;20507;-50
2023/03/24 00:46:54;;;;;;;9.13;4.97;;;11.60;99.90;;;;;;4935767;29;20116;-48
2023/03/24 00:49:43;;;;;;;9.77;4.85;;;11.40;99.90;;;;;;4935791;29;20507;-47
2023/03/24 00:52:16;;;;;;;10.95;4.95;;;11.30;99.90;;;;;;4935541;29;20063;-47
2023/03/24 00:54:44;;;;;;;9.35;4.95;;;11.70;99.90;;;;;;4935983;29;20043;-48
2023/03/24 00:57:20;;;;;;;9.15;4.10;;;11.60;99.90;;;;;;4935644;29;20397;-51
2023/03/24 00:59:47;;;;;;;10.02;4.70;;;11.40;99.90;;;;;;4935833;29;20050;-51
2023/03/24 01:02:23;;;;;;;10.38;4.07;;;11.50;99.90;;;;;;4934368;29;20040;-49
2023/03/24 01:04:55;;;;;;;10.90;4.63;;;11.50;99.90;;;;;;4934042;29;20054;-50
2023/03/24 01:07:22;;;;;;;8.63;4.90;;;11.80;99.90;;;;;;4935622;29;20445;-51
2023/03/24 01:09:56;;;;;;;10.60;5.13;;;11.60;99.90;;;;;;4935478;29;20075;-47
2023/03/24 01:12:29;;;;;;;9.45;3.85;;;11.50;99.90;;;;;;4934203;29;20059;-48
2023/03/24 01:14:57;;;;;;;9.18;5.05;;;11.70;99.90;;;;;;4935898;29;20036;-51
2023/03/24 01:17:24;;;;;;;8.15;4.35;;;11.80;99.90;;;;;;4935396;29;20046;-46
2023/03/24 01:19:53;;;;;;;10.35;4.15;;;11.60;99.90;;;;;;4934769;29;20055;-52
2023/03/24 01:22:19;;;;;;;7.78;4.50;;;11.70;99.90;;;;;;4934291;29;20528;-48
2023/03/24 01:24:47;;;;;;;10.43;4.65;;;11.50;99.90;;;;;;4933149;29;20044;-50
2023/03/24 01:27:13;;;;;;;12.18;4.22;;;11.40;99.90;;;;;;4934500;29;20035;-49
2023/03/24 01:29:39;;;;;;;10.23;4.70;;;11.40;99.90;;;;;;4935000;29;20043;-47
2023/03/24 01:32:05;;;;;;;8.13;4.78;;;11.80;99.90;;;;;;4935548;29;20391;-51
2023/03/24 01:34:31;;;;;;;9.02;4.60;;;11.70;99.90;;;;;;4934897;29;20040;-51
2023/03/24 01:36:58;;;;;;;8.50;4.68;;;11.70;99.90;;;;;;4934726;29;20040;-47
2023/03/24 01:39:24;;;;;;;7.70;4.30;;;11.40;99.90;;;;;;4934763;29;20094;-45
2023/03/24 01:41:50;;;;;;;8.90;3.92;;;11.80;99.90;;;;;;4933497;29;20047;-46
2023/03/24 01:44:29;;;;;;;8.27;4.00;;;11.70;99.90;;;;;;4935089;29;20047;-47
2023/03/24 01:46:56;;;;;;;6.47;4.03;;;11.90;99.90;;;;;;4934701;29;20047;-48
2023/03/24 01:49:26;;;;;;;8.27;4.00;;;11.60;99.90;;;;;;4933194;29;20086;-47
2023/03/24 01:51:56;;;;;;;6.72;3.70;;;11.80;99.90;;;;;;4934579;29;20071;-47
2023/03/24 01:54:42;;;;;;;7.65;4.05;;;11.70;99.90;;;;;;4935193;29;20079;-46
2023/03/24 01:57:16;;;;;;;7.75;3.67;;;11.90;99.90;;;;;;4934773;29;20071;-48
2023/03/24 01:59:46;;;;;;;6.82;3.65;;;11.90;99.90;;;;;;4934821;29;20051;-47
2023/03/24 02:02:12;;;;;;;9.80;4.47;;;11.90;99.90;;;;;;4933720;29;20036;-46
2023/03/24 02:04:53;;;;;;;6.53;3.80;;;11.70;99.90;;;;;;4934640;29;20044;-47
2023/03/24 02:07:28;;;;;;;8.05;3.53;;;11.70;99.90;;;;;;4934716;29;20039;-50
2023/03/24 02:09:54;;;;;;;7.22;3.90;;;11.80;99.90;;;;;;4931868;29;20123;-49
2023/03/24 02:12:20;;;;;;;8.05;3.70;;;12.00;99.90;;;;;;4934591;29;20111;-48
2023/03/24 02:14:46;;;;;;;8.73;4.07;;;11.90;99.90;;;;;;4934259;29;20388;-47
2023/03/24 02:17:32;;;;;;;9.30;4.00;;;11.70;99.90;;;;;;4933170;29;20047;-51
2023/03/24 02:20:40;;;;;;;9.20;3.78;;;12.00;99.90;;;;;;4932639;29;20118;-49
2023/03/24 02:23:21;;;;;;;7.68;3.90;;;11.70;99.90;;;;;;4907818;29;20051;-50
2023/03/24 02:26:17;;;;;;;7.05;3.92;;;12.00;99.90;;;;;;4933941;29;20071;-48
2023/03/24 02:28:59;;;;;;;6.80;3.70;;;11.90;99.90;;;;;;4934252;29;20059;-46
2023/03/24 02:32:07;;;;;;;5.65;3.72;;;11.90;99.90;;;;;;4932893;29;20040;-46
2023/03/24 02:34:32;;;;;;;6.25;4.03;;;12.10;99.90;;;;;;4933887;29;20051;-47
2023/03/24 02:37:39;;;;;;;6.32;3.70;;;11.70;99.90;;;;;;4934112;29;20043;-51
2023/03/24 02:40:17;;;;;;;7.32;4.18;;;11.70;99.90;;;;;;4934115;29;20048;-47
2023/03/24 02:43:19;;;;;;;7.93;4.22;;;11.90;99.90;;;;;;4933993;29;20073;-45
2023/03/24 02:46:00;;;;;;;8.55;4.18;;;12.10;99.90;;;;;;4933715;29;20114;-47
2023/03/24 02:48:47;;;;;;;6.53;4.25;;;12.00;99.90;;;;;;4933425;29;20035;-50
2023/03/24 02:51:29;;;;;;;7.35;4.60;;;11.90;99.90;;;;;;4933256;29;20189;-50
2023/03/24 02:54:18;;;;;;;6.35;4.30;;;12.00;99.90;;;;;;4914140;29;20052;-47
2023/03/24 02:56:57;;;;;;;7.57;4.32;;;12.10;99.90;;;;;;4912284;29;20188;-45
2023/03/24 02:59:28;;;;;;;6.53;4.22;;;12.10;99.90;;;;;;4914861;29;20081;-45
2023/03/24 03:02:06;;;;;;;7.45;4.22;;;11.70;99.90;;;;;;4914469;29;20043;-46
2023/03/24 03:04:44;;;;;;;7.20;3.97;;;12.20;99.90;;;;;;4897525;29;20040;-49
2023/03/24 03:07:15;;;;;;;7.35;4.25;;;11.90;99.90;;;;;;4914650;29;20043;-47
2023/03/24 03:09:52;;;;;;;6.68;3.97;;;12.00;99.90;;;;;;4921163;29;20048;-50
2023/03/24 03:12:19;;;;;;;7.60;4.70;;;11.90;99.90;;;;;;4923523;29;20091;-50
2023/03/24 03:14:53;;;;;;;6.90;4.50;;;12.00;99.90;;;;;;4917299;29;20036;-50
2023/03/24 03:17:29;;;;;;;7.88;5.32;;;12.20;99.90;;;;;;4914178;29;20039;-49
2023/03/24 03:20:03;;;;;;;7.82;5.00;;;11.80;99.90;;;;;;4914080;29;20036;-46
2023/03/24 03:22:41;;;;;;;8.35;4.95;;;11.80;99.90;;;;;;4897353;29;20544;-48
2023/03/24 03:25:10;;;;;;;7.03;3.97;;;12.20;99.90;;;;;;4912913;29;20043;-50
2023/03/24 03:27:39;;;;;;;6.30;4.13;;;12.10;99.90;;;;;;4912908;29;20432;-47
2023/03/24 03:30:32;;;;;;;5.88;2.90;;;11.80;99.90;;;;;;4914067;29;20059;-51
2023/03/24 03:33:16;;;;;;;5.00;1.88;;;11.70;99.90;;;;;;4897116;29;20044;-51
2023/03/24 03:36:06;;;;;;;6.90;1.90;;;11.70;99.90;;;;;;4914881;29;20445;-50
2023/03/24 03:38:39;;;;;;;5.43;1.75;;;11.70;99.90;;;;;;4926078;29;20055;-49
2023/03/24 03:41:05;;;;;;;5.73;1.77;;;11.40;99.90;;;;;;4911718;29;20040;-48
2023/03/24 03:43:32;;;;;;;5.95;1.48;;;11.40;99.90;;;;;;4913991;29;20363;-46
2023/03/24 03:45:59;;;;;;;6.95;1.60;;;11.40;99.90;;;;;;4914082;29;20488;-50
2023/03/24 03:48:28;;;;;;;5.97;1.77;;;11.30;99.90;;;;;;4913572;29;20083;-46
2023/03/24 03:50:55;;;;;;;10.10;1.90;;;11.20;99.90;;;;;;4912828;29;20047;-46
2023/03/24 03:53:25;;;;;;;6.95;1.73;;;11.20;99.90;;;;;;4933214;29;20107;-49
2023/03/24 03:55:52;;;;;;;7.13;2.08;;;11.10;99.90;;;;;;4933027;29;20091;-49
2023/03/24 03:58:18;;;;;;;9.38;1.85;;;11.10;99.90;;;;;;4932317;29;20051;-49
2023/03/24 04:00:44;;;;;;;9.15;1.67;;;10.90;99.90;;;;;;4931894;29;20043;-46
2023/03/24 04:03:43;;;;;;;9.20;1.80;;;10.90;99.90;;;;;;4936914;29;20126;-49
2023/03/24 04:06:30;;;;;;;6.20;1.50;;;10.80;99.90;;;;;;4935829;29;20047;-50
2023/03/24 04:09:11;;;;;;;8.65;1.67;;;10.70;99.90;;;;;;4935720;29;20082;-47
2023/03/24 04:11:55;;;;;;;8.52;2.33;;;10.80;99.90;;;;;;4935321;29;20048;-47
2023/03/24 04:14:49;;;;;;;11.02;1.95;;;10.70;99.90;;;;;;4936457;29;20051;-47
2023/03/24 04:17:52;;;;;;;4.88;1.40;;;10.80;99.90;;;;;;4935921;29;20039;-45
2023/03/24 04:20:33;;;;;;;7.28;1.60;;;10.60;99.90;;;;;;4935978;29;20047;-45
2023/03/24 04:23:25;;;;;;;7.70;1.70;;;10.70;99.90;;;;;;4937105;29;20047;-46
2023/03/24 04:26:02;;;;;;;9.10;2.03;;;10.60;99.90;;;;;;4924555;29;20484;-47
2023/03/24 04:28:56;;;;;;;11.10;1.83;;;10.60;99.90;;;;;;4934881;29;20071;-46
2023/03/24 04:31:52;;;;;;;11.43;2.15;;;10.60;99.90;;;;;;4936237;29;20039;-46
2023/03/24 04:34:28;;;;;;;9.65;2.10;;;10.50;99.90;;;;;;4936100;29;20036;-46
2023/03/24 04:37:16;;;;;;;12.57;2.40;;;10.60;99.90;;;;;;4936101;29;20399;-46
2023/03/24 04:39:45;;;;;;;9.95;2.67;;;10.50;99.90;;;;;;4936541;29;20514;-46
2023/03/24 04:42:20;;;;;;;10.10;2.28;;;10.50;99.90;;;;;;4934657;29;20088;-46
2023/03/24 04:44:50;;;;;;;12.48;2.10;;;10.40;99.90;;;;;;4935912;29;20144;-46
2023/03/24 04:47:20;;;;;;;15.23;2.28;;;10.30;99.90;;;;;;4936224;29;20043;-49
2023/03/24 04:49:45;;;;;;;8.82;1.73;;;10.30;99.90;;;;;;4935585;29;20126;-45
2023/03/24 04:52:11;;;;;;;12.00;2.08;;;10.30;99.90;;;;;;4934249;29;20468;-47
2023/03/24 04:54:37;;;;;;;11.65;2.47;;;10.20;99.90;;;;;;4935747;29;20044;-46
2023/03/24 04:57:04;;;;;;;13.30;2.40;;;10.10;99.90;;;;;;4935810;29;20476;-49
2023/03/24 04:59:33;;;;;;;11.68;2.40;;;10.10;99.90;;;;;;4936177;29;20039;-49
2023/03/24 05:02:02;;;;;;;9.25;1.85;;;10.00;99.90;;;;;;4918692;29;20055;-51
2023/03/24 05:04:29;;;;;;;12.05;2.22;;;10.00;99.90;;;;;;4935818;29;20043;-48
2023/03/24 05:06:55;;;;;;;12.98;2.03;;;10.00;99.90;;;;;;4935803;29;20464;-46
2023/03/24 05:09:24;;;;;;;11.30;2.00;;;9.80;99.90;;;;;;4928964;29;20143;-50
2023/03/24 05:11:50;;;;;;;12.02;1.98;;;9.80;99.90;;;;;;4934815;29;20078;-46
2023/03/24 05:14:16;;;;;;;11.07;2.05;;;9.80;99.90;;;;;;4935962;29;20122;-46
2023/03/24 05:16:42;;;;;;;7.10;2.22;;;9.70;99.90;;;;;;4934462;29;20072;-46
2023/03/24 05:19:08;;;;;;;9.32;1.75;;;9.80;99.90;;;;;;4935237;29;20035;-49
2023/03/24 05:21:34;;;;;;;9.98;1.73;;;9.70;99.90;;;;;;4934768;29;20043;-47
2023/03/24 05:24:00;;;;;;;11.52;2.40;;;9.60;99.90;;;;;;4934994;29;20114;-48
2023/03/24 05:26:25;;;;;;;6.78;1.90;;;9.60;99.90;;;;;;4935127;29;20479;-49
2023/03/24 05:28:52;;;;;;;11.90;2.28;;;9.60;99.90;;;;;;4935212;29;20040;-48
2023/03/24 05:31:18;;;;;;;14.88;2.25;;;9.60;99.90;;;;;;4935458;29;20447;-45
2023/03/24 05:33:44;;;;;;;9.05;2.28;;;9.50;99.90;;;;;;4934988;29;20046;-45
2023/03/24 05:36:11;;;;;;;10.25;2.08;;;9.50;99.90;;;;;;4917024;29;20045;-44
2023/03/24 05:38:36;;;;;;;11.95;2.08;;;9.60;99.90;;;;;;4934840;29;20433;-46
2023/03/24 05:41:02;;;;;;;10.60;2.17;;;9.50;99.90;;;;;;4934956;29;20349;-47
2023/03/24 05:43:28;;;;;;;10.15;1.80;;;9.50;99.90;;;;;;4933992;29;20040;-47
2023/03/24 05:45:55;;;;;;;8.40;1.95;;;9.60;99.90;;;;;;4933656;29;20050;-46
2023/03/24 05:48:21;;;;;;;9.90;2.10;;;9.60;99.90;;;;;;4934976;29;20491;-48
2023/03/24 05:50:46;;;;;;;11.18;2.03;;;9.40;99.90;;;;;;4934428;29;20080;-48
2023/03/24 05:53:12;;;;;;;9.43;2.00;;;9.40;99.90;;;;;;4917482;29;20075;-44
2023/03/24 05:55:39;;;;;;;11.88;2.25;;;9.50;99.90;;;;;;4932761;29;20123;-46
2023/03/24 05:58:05;;;;;;;9.32;1.95;;;9.40;99.90;;;;;;4934939;29;20036;-48
2023/03/24 06:00:32;;;;;;;8.50;2.22;;;9.40;99.90;;;;;;4934362;29;20035;-45
2023/03/24 06:02:58;;;;;;;9.00;2.40;;;9.50;99.90;;;;;;4934713;29;20046;-48
2023/03/24 06:05:24;;;;;;;13.07;2.50;;;9.50;99.90;;;;;;4934535;29;20044;-45
2023/03/24 06:07:50;;;;;;;12.98;2.60;;;9.50;99.90;;;;;;4934557;29;20040;-48
2023/03/24 06:10:17;;;;;;;16.38;2.75;;;9.70;99.90;;;;;;4934653;29;20400;-48
2023/03/24 06:12:45;;;;;;;14.77;2.65;;;9.70;99.90;;;;;;4934321;29;20040;-47
2023/03/24 06:15:16;;;;;;;12.98;2.03;;;9.70;99.90;;;;;;4934603;29;20035;-48
2023/03/24 06:17:43;;;;;;;17.58;2.97;;;9.70;99.90;;;;;;4934277;29;20047;-45
2023/03/24 06:20:14;;;;;;;14.23;2.90;;;9.70;99.90;;;;;;4932581;29;20056;-46
2023/03/24 06:22:41;;;;;;;17.45;2.13;;;9.80;99.90;;;;;;4934981;29;20491;-48
2023/03/24 06:25:08;;;;;;;16.45;2.88;;;9.70;99.90;;;;;;4916408;29;20087;-45
2023/03/24 06:27:34;;;;;;;13.55;2.20;;;9.80;99.90;;;;;;4934614;29;20050;-47
2023/03/24 06:30:00;;;;;;;17.27;2.58;;;9.80;99.90;;;;;;4915834;29;20571;-46
2023/03/24 06:32:27;;;;;;;17.92;2.80;;;9.90;99.90;;;;;;4915542;29;20040;-47
2023/03/24 06:34:54;;;;;;;16.02;3.05;;;9.90;99.90;;;;;;4923440;29;20082;-47
2023/03/24 06:37:23;;;;;;;14.43;2.78;;;10.00;99.90;;;;;;4924487;29;20051;-49
2023/03/24 06:39:48;;;;;;;15.77;2.55;;;9.90;99.90;;;;;;4923947;29;20698;-48
2023/03/24 06:42:15;;;;;;;17.08;3.00;;;9.90;99.90;;;;;;4925688;29;20070;-46
2023/03/24 06:44:40;;;;;;;15.75;3.08;;;9.90;99.90;;;;;;4927283;29;20027;-50
2023/03/24 06:47:06;;;;;;;14.25;2.40;;;10.10;99.90;;;;;;4926240;29;20028;-45
2023/03/24 06:49:33;;;;;;;15.88;3.05;;;10.00;99.90;;;;;;4928875;29;20488;-45
2023/03/24 06:52:00;;;;;;;19.92;2.63;;;10.10;99.90;;;;;;4931227;29;20055;-46
2023/03/24 06:54:27;;;;;;;17.75;2.75;;;10.10;99.90;;;;;;4931766;29;20048;-46
2023/03/24 06:56:53;;;;;;;18.05;3.15;;;10.20;99.90;;;;;;4932400;29;20054;-46
2023/03/24 06:59:22;;;;;;;21.67;2.95;;;10.20;99.90;;;;;;4934284;29;20471;-47
2023/03/24 07:01:52;;;;;;;20.92;3.10;;;10.30;99.90;;;;;;4934217;29;20559;-50
2023/03/24 07:04:19;;;;;;;19.92;3.33;;;10.20;99.90;;;;;;4931519;29;20114;-45
2023/03/24 07:06:44;;;;;;;22.00;3.20;;;10.30;99.90;;;;;;4933672;29;20047;-47
2023/03/24 07:09:13;;;;;;;16.63;3.03;;;10.30;99.90;;;;;;4932170;29;20071;-48
2023/03/24 07:11:40;;;;;;;21.98;4.05;;;10.20;99.90;;;;;;4933361;29;20047;-47
2023/03/24 07:14:06;;;;;;;22.67;4.22;;;10.30;99.90;;;;;;4933599;29;20048;-48
2023/03/24 07:16:31;;;;;;;21.08;3.65;;;10.40;99.90;;;;;;4933514;29;20394;-48
2023/03/24 07:18:57;;;;;;;19.17;3.35;;;10.20;99.90;;;;;;4933126;29;20040;-50
2023/03/24 07:21:23;;;;;;;20.27;3.22;;;10.30;99.90;;;;;;4932582;29;20388;-47
2023/03/24 07:23:48;;;;;;;18.15;3.35;;;10.30;99.90;;;;;;4933231;29;20078;-47
2023/03/24 07:26:14;;;;;;;22.38;3.17;;;10.30;99.90;;;;;;4933054;29;20046;-48
2023/03/24 07:28:40;;;;;;;22.75;3.72;;;10.30;99.90;;;;;;4933153;29;20039;-50
2023/03/24 07:31:09;;;;;;;25.45;3.53;;;10.30;99.90;;;;;;4932899;29;20039;-46
2023/03/24 07:33:36;;;;;;;18.42;3.58;;;10.30;99.90;;;;;;4932960;29;20119;-46
2023/03/24 07:36:02;;;;;;;28.58;3.92;;;10.30;99.90;;;;;;4915277;29;20369;-45
2023/03/24 07:38:27;;;;;;;24.08;3.80;;;10.30;99.90;;;;;;4915795;29;20102;-48
2023/03/24 07:40:53;;;;;;;18.33;3.13;;;10.40;99.90;;;;;;4933099;29;20035;-50
2023/03/24 07:43:19;;;;;;;22.90;3.88;;;10.40;99.90;;;;;;4933048;29;20054;-50
2023/03/24 07:45:45;;;;;;;23.42;3.63;;;10.40;99.90;;;;;;4933263;29;20631;-47
2023/03/24 07:48:11;;;;;;;21.85;4.00;;;10.60;99.90;;;;;;4932805;29;20419;-47
2023/03/24 07:50:37;;;;;;;20.80;3.53;;;10.60;99.90;;;;;;4932209;29;20040;-44
2023/03/24 07:53:03;;;;;;;22.98;3.22;;;10.60;99.90;;;;;;4915612;29;20067;-47
2023/03/24 07:55:29;;;;;;;16.90;3.35;;;10.70;99.90;;;;;;4932800;29;20047;-46
2023/03/24 07:57:54;;;;;;;20.60;3.60;;;10.70;99.90;;;;;;4932473;29;20036;-45
2023/03/24 08:00:23;;;;;;;24.17;3.92;;;10.70;99.90;;;;;;4932931;29;20039;-45
2023/03/24 08:02:51;;;;;;;19.92;3.47;;;10.80;99.90;;;;;;4933039;29;20043;-45
2023/03/24 08:05:21;;;;;;;17.02;3.08;;;10.80;99.90;;;;;;4932982;29;20050;-45
2023/03/24 08:07:52;;;;;;;19.58;3.15;;;10.90;99.90;;;;;;4932816;29;20131;-45
2023/03/24 08:10:19;;;;;;;15.63;3.28;;;10.90;99.90;;;;;;4932311;29;20044;-45
2023/03/24 08:12:46;;;;;;;18.90;3.03;;;11.00;99.90;;;;;;4918833;29;20040;-46
2023/03/24 08:15:13;;;;;;;15.70;2.70;;;11.00;99.90;;;;;;4932237;29;20130;-50
2023/03/24 08:17:39;;;;;;;18.92;3.85;;;11.10;99.90;;;;;;4931684;29;20059;-47
2023/03/24 08:20:13;;;;;;;18.80;3.13;;;11.00;99.90;;;;;;4932058;29;20035;-49
2023/03/24 08:22:40;;;;;;;19.33;3.20;;;11.20;99.90;;;;;;4932439;29;20476;-49
2023/03/24 08:25:07;;;;;;;14.75;3.28;;;11.20;99.90;;;;;;4931926;29;20044;-48
2023/03/24 08:27:33;;;;;;;14.00;3.28;;;11.20;99.90;;;;;;4931539;29;20036;-50
2023/03/24 08:29:58;;;;;;;22.05;3.58;;;11.20;99.90;;;;;;4931605;29;20522;-50
2023/03/24 08:32:24;;;;;;;18.20;3.35;;;11.20;99.90;;;;;;4932574;29;20098;-50
2023/03/24 08:34:50;;;;;;;15.55;3.15;;;11.40;99.90;;;;;;4931202;29;20044;-48
2023/03/24 08:37:15;;;;;;;18.40;3.28;;;11.50;99.90;;;;;;4930873;29;20563;-51
2023/03/24 08:39:41;;;;;;;19.65;4.03;;;11.60;99.90;;;;;;4932797;29;20051;-49
2023/03/24 08:42:07;;;;;;;18.60;3.35;;;11.60;99.90;;;;;;4931574;29;20059;-52
2023/03/24 08:44:32;;;;;;;16.73;2.80;;;11.60;99.90;;;;;;4932431;29;20071;-51
2023/03/24 08:47:00;;;;;;;20.02;3.17;;;11.60;99.90;;;;;;4931914;29;20099;-47
2023/03/24 08:49:26;;;;;;;21.75;3.78;;;11.70;99.90;;;;;;4936214;29;20044;-51
2023/03/24 08:51:51;;;;;;;18.27;3.90;;;11.80;99.90;;;;;;4934329;29;20137;-50
2023/03/24 08:54:18;;;;;;;19.55;4.40;;;11.80;99.90;;;;;;4934684;29;20044;-49
2023/03/24 08:56:43;;;;;;;20.73;4.05;;;11.80;99.90;;;;;;4934727;29;20499;-47
2023/03/24 08:59:09;;;;;;;22.63;4.00;;;11.90;99.90;;;;;;4934489;29;20071;-47
2023/03/24 09:01:35;;;;;;;26.60;4.53;;;11.90;99.90;;;;;;4935747;29;20046;-48
2023/03/24 09:04:01;;;;;;;18.25;3.25;;;11.90;99.90;;;;;;4935099;29;20067;-50
2023/03/24 09:06:27;;;;;;;19.15;3.00;;;11.80;99.90;;;;;;4936025;29;20098;-49
2023/03/24 09:08:53;;;;;;;17.17;3.00;;;11.60;99.90;;;;;;4935709;29;20043;-51
2023/03/24 09:11:20;;;;;;;19.77;3.22;;;11.50;99.90;;;;;;4935699;29;20459;-46
2023/03/24 09:13:47;;;;;;;16.42;2.67;;;11.50;99.90;;;;;;4935649;29;20373;-46
2023/03/24 09:16:13;;;;;;;17.83;2.97;;;11.40;99.90;;;;;;4935994;29;20036;-46
2023/03/24 09:18:39;;;;;;;17.08;3.40;;;11.50;99.90;;;;;;4935555;29;20605;-45
2023/03/24 09:21:06;;;;;;;15.48;3.10;;;11.80;99.90;;;;;;4935279;29;20039;-46
2023/03/24 09:23:32;;;;;;;18.48;3.33;;;12.00;99.90;;;;;;4935334;29;20047;-52
2023/03/24 09:25:58;;;;;;;15.27;2.80;;;12.10;99.90;;;;;;4934433;29;20031;-50
2023/03/24 09:28:24;;;;;;;21.23;3.35;;;12.10;99.90;;;;;;4935687;29;20048;-47
2023/03/24 09:30:55;;;;;;;18.45;3.10;;;12.00;99.90;;;;;;4935541;29;20050;-45
2023/03/24 09:33:20;;;;;;;17.23;3.22;;;11.90;99.90;;;;;;4935782;29;20487;-46
2023/03/24 09:35:56;;;;;;;14.52;2.88;;;11.90;99.90;;;;;;4927672;29;20038;-48
2023/03/24 09:38:22;;;;;;;19.20;3.40;;;11.80;99.90;;;;;;4935167;29;20104;-47
2023/03/24 09:40:54;;;;;;;19.85;3.97;;;11.80;99.90;;;;;;4934721;29;20538;-47
2023/03/24 09:43:29;;;;;;;18.80;2.97;;;11.70;99.90;;;;;;4934738;29;20078;-48
2023/03/24 09:45:57;;;;;;;18.40;2.83;;;11.80;99.90;;;;;;4934919;29;20090;-46
2023/03/24 09:48:50;;;;;;;14.52;2.72;;;11.80;99.90;;;;;;4934993;29;20047;-46
2023/03/24 09:51:21;;;;;;;13.30;2.45;;;11.80;99.90;;;;;;4934289;29;20040;-50
2023/03/24 09:54:15;;;;;;;20.42;2.80;;;11.70;99.90;;;;;;4935074;29;20058;-47
2023/03/24 09:56:44;;;;;;;16.63;2.88;;;11.60;99.90;;;;;;4933697;29;20043;-45
2023/03/24 09:59:31;;;;;;;15.25;3.03;;;11.60;99.90;;;;;;4933787;29;20071;-45
2023/03/24 10:01:57;;;;;;;15.32;2.97;;;11.80;99.90;;;;;;4934569;29;20122;-44
2023/03/24 10:04:27;;;;;;;18.33;2.70;;;11.90;99.90;;;;;;4934686;29;20111;-47
2023/03/24 10:07:15;;;;;;;16.55;2.72;;;12.00;99.90;;;;;;4934623;29;20040;-45
2023/03/24 10:09:41;;;;;;;12.98;2.60;;;12.00;99.90;;;;;;4934052;29;20051;-46
2023/03/24 10:12:20;;;;;;;15.73;3.25;;;12.00;99.90;;;;;;4934432;29;20047;-46
2023/03/24 10:15:21;;;;;;;17.58;3.10;;;12.10;99.90;;;;;;4934522;29;20039;-47
2023/03/24 10:18:05;;;;;;;17.33;2.88;;;12.20;99.90;;;;;;4933580;29;20047;-48
2023/03/24 10:20:44;;;;;;;16.03;3.13;;;12.40;99.90;;;;;;4933415;29;20103;-46
2023/03/24 10:23:26;;;;;;;16.42;3.42;;;12.50;99.90;;;;;;4934488;29;20785;-45
2023/03/24 10:26:04;;;;;;;16.90;2.67;;;12.60;99.90;;;;;;4934215;29;20051;-47
2023/03/24 10:29:03;;;;;;;17.63;2.80;;;12.70;99.90;;;;;;4933978;29;20526;-48
2023/03/24 10:31:33;;;;;;;20.52;3.25;;;12.90;99.90;;;;;;4933981;29;20326;-46
2023/03/24 10:33:59;;;;;;;15.30;2.88;;;13.00;99.90;;;;;;4924506;29;20040;-49
2023/03/24 10:36:26;;;;;;;17.13;2.88;;;13.00;99.90;;;;;;4933984;29;20035;-49
2023/03/24 10:38:52;;;;;;;16.67;3.75;;;13.00;99.90;;;;;;4917008;29;20084;-47
2023/03/24 10:41:29;;;;;;;14.60;2.92;;;13.20;99.90;;;;;;4933981;29;20476;-51
2023/03/24 10:43:56;;;;;;;18.10;4.03;;;13.20;99.90;;;;;;4933643;29;20054;-46
2023/03/24 10:46:28;;;;;;;17.13;3.40;;;13.20;99.90;;;;;;4933548;29;20131;-47
2023/03/24 10:49:09;;;;;;;16.75;3.83;;;13.20;99.90;;;;;;4923214;29;20454;-46
2023/03/24 10:51:35;;;;;;;14.90;2.97;;;13.10;99.90;;;;;;4933397;29;20062;-47
2023/03/24 10:54:18;;;;;;;18.15;3.80;;;13.10;99.90;;;;;;4933750;29;20059;-46
2023/03/24 10:56:45;;;;;;;13.48;3.10;;;13.20;99.90;;;;;;4934078;29;20043;-49
2023/03/24 10:59:35;;;;;;;22.27;3.22;;;13.30;99.90;;;;;;4933837;29;20039;-48
2023/03/24 11:02:09;;;;;;;13.82;3.17;;;13.50;99.90;;;;;;4933239;29;20046;-48
2023/03/24 11:04:42;;;;;;;11.15;2.78;;;13.60;99.90;;;;;;4933449;29;20047;-48
2023/03/24 11:07:20;;;;;;;13.60;2.83;;;13.70;99.90;;;;;;4933571;29;20063;-49
2023/03/24 11:10:14;;;;;;;12.57;2.80;;;13.70;99.90;;;;;;4932015;29;20048;-46
2023/03/24 11:13:01;;;;;;;13.02;2.90;;;13.60;99.90;;;;;;4933231;29;20149;-44
2023/03/24 11:15:29;;;;;;;15.38;2.95;;;13.50;99.90;;;;;;4933493;29;20120;-48
2023/03/24 11:18:10;;;;;;;14.55;3.05;;;13.40;99.90;;;;;;4933711;29;20066;-47
2023/03/24 11:20:38;;;;;;;13.38;2.90;;;13.30;99.90;;;;;;4932866;29;20044;-47
2023/03/24 11:23:14;;;;;;;12.38;2.85;;;13.10;99.90;;;;;;4933038;29;20124;-47
2023/03/24 11:25:43;;;;;;;14.23;2.97;;;13.10;99.90;;;;;;4930597;29;20043;-46
2023/03/24 11:28:16;;;;;;;12.30;2.67;;;13.30;99.90;;;;;;4933423;29;20047;-46
2023/03/24 11:30:48;;;;;;;11.73;2.70;;;13.50;99.90;;;;;;4932254;29;20495;-46
2023/03/24 11:33:32;;;;;;;13.88;3.22;;;13.50;99.90;;;;;;4915912;29;20118;-48
2023/03/24 11:35:59;;;;;;;15.45;3.28;;;13.50;99.90;;;;;;4933318;29;20037;-47
2023/03/24 11:38:31;;;;;;;14.57;2.90;;;13.70;99.90;;;;;;4933063;29;20044;-50
2023/03/24 11:41:03;;;;;;;10.75;2.50;;;14.00;99.90;;;;;;4931547;29;20044;-47
2023/03/24 11:43:30;;;;;;;10.95;2.42;;;14.10;99.90;;;;;;4931310;29;20314;-50
2023/03/24 11:46:19;;;;;;;13.60;3.28;;;14.10;99.90;;;;;;4932354;29;20134;-45
2023/03/24 11:48:58;;;;;;;14.48;2.97;;;13.80;99.90;;;;;;4933147;29;20040;-50
2023/03/24 11:51:40;;;;;;;14.57;2.70;;;13.60;99.90;;;;;;4914959;29;20107;-48
2023/03/24 11:54:15;;;;;;;14.48;2.70;;;13.40;99.90;;;;;;4931771;29;20079;-46
2023/03/24 11:56:54;;;;;;;13.63;3.15;;;13.40;99.90;;;;;;4915608;29;20098;-48
2023/03/24 11:59:45;;;;;;;12.00;2.40;;;13.70;99.90;;;;;;4932710;29;20139;-51
2023/03/24 12:02:49;;;;;;;9.93;2.50;;;14.00;99.90;;;;;;4932634;29;20050;-47
2023/03/24 12:05:21;;;;;;;10.20;2.05;;;14.50;99.90;;;;;;4932344;29;20102;-47
2023/03/24 12:07:59;;;;;;;15.15;3.08;;;14.90;99.90;;;;;;4932776;29;20048;-46
2023/03/24 12:10:36;;;;;;;15.38;3.30;;;15.00;99.90;;;;;;4930917;29;20118;-47
2023/03/24 12:13:15;;;;;;;15.55;3.00;;;15.00;99.90;;;;;;4932853;29;20364;-46
2023/03/24 12:16:06;;;;;;;14.30;3.13;;;14.80;99.90;;;;;;4915568;29;20103;-47
2023/03/24 12:19:05;;;;;;;13.88;2.95;;;14.70;99.90;;;;;;4932460;29;20166;-45
2023/03/24 12:22:01;;;;;;;16.10;3.22;;;14.40;99.90;;;;;;4932391;29;20044;-51
2023/03/24 12:24:45;;;;;;;14.77;2.60;;;14.50;99.90;;;;;;4918049;29;20079;-51
2023/03/24 12:27:32;;;;;;;16.13;3.13;;;14.60;99.90;;;;;;4919432;29;20040;-46
2023/03/24 12:30:10;;;;;;;13.07;3.03;;;14.60;99.90;;;;;;4935356;29;20114;-47
2023/03/24 12:32:51;;;;;;;16.20;2.80;;;14.40;99.90;;;;;;4919508;29;20047;-48
2023/03/24 12:36:04;;;;;;;12.68;3.20;;;14.30;99.90;;;;;;4936790;29;20058;-48
2023/03/24 12:38:32;;;;;;;17.02;3.38;;;14.20;99.90;;;;;;4901267;29;20461;-49
2023/03/24 12:41:15;;;;;;;14.38;2.63;;;14.50;99.90;;;;;;4935371;29;20044;-49
2023/03/24 12:44:00;;;;;;;15.20;3.40;;;14.70;99.90;;;;;;4936012;29;20051;-52
2023/03/24 12:46:35;;;;;;;17.20;3.10;;;15.00;99.90;;;;;;4936545;29;20519;-47
2023/03/24 12:49:23;;;;;;;14.63;3.05;;;15.10;99.90;;;;;;4936674;29;20130;-46
2023/03/24 12:52:26;;;;;;;12.95;2.80;;;15.20;99.90;;;;;;4935562;29;20118;-48
2023/03/24 12:55:05;;;;;;;12.23;3.15;;;15.10;99.90;;;;;;4936030;29;20051;-48
2023/03/24 12:57:43;;;;;;;14.88;3.15;;;15.20;99.90;;;;;;4935926;29;20048;-49
2023/03/24 13:00:22;;;;;;;17.65;3.17;;;15.40;99.90;;;;;;4934310;29;20560;-50
2023/03/24 13:02:50;;;;;;;14.15;2.92;;;15.50;99.90;;;;;;4933843;29;20440;-50
2023/03/24 13:05:26;;;;;;;14.98;2.90;;;15.50;99.90;;;;;;4935215;29;20050;-48
2023/03/24 13:07:56;;;;;;;13.82;2.60;;;15.60;99.90;;;;;;4935610;29;20069;-50
2023/03/24 13:10:26;;;;;;;14.05;2.78;;;15.50;99.90;;;;;;4934618;29;20074;-49